Time;durP1;ratioP1;P1;durP2;ratioP2;P2;SDS_P1;SDS_P2;PMS_P1;PMS_P2;Temp;Humidity;BMP_temperature;BMP_pressure;BME280_temperature;BME280_humidity;BME280_pressure;Samples;Min_cycle;Max_cycle;Signal;HPM_P1;HPM_P2
2023/05/31 00:01:30;;;;;;;7.22;2.30;;;10.10;99.90;;;;;;4963987;28;20074;-68
2023/05/31 00:03:57;;;;;;;9.70;3.42;;;10.10;99.90;;;;;;4963131;28;20054;-67
2023/05/31 00:06:24;;;;;;;7.03;1.90;;;10.10;99.90;;;;;;4977152;28;21190;-70
2023/05/31 00:08:51;;;;;;;10.95;2.03;;;10.10;99.90;;;;;;4965400;28;20067;-65
2023/05/31 00:11:18;;;;;;;8.35;3.25;;;10.10;99.90;;;;;;4964979;28;20061;-67
2023/05/31 00:13:45;;;;;;;5.78;1.98;;;10.20;99.90;;;;;;4964350;28;20046;-61
2023/05/31 00:16:13;;;;;;;5.15;2.85;;;10.20;99.90;;;;;;4961480;28;20113;-62
2023/05/31 00:19:00;;;;;;;3.85;2.47;;;10.20;99.90;;;;;;4963109;28;20047;-69
2023/05/31 00:21:27;;;;;;;7.57;2.08;;;10.20;99.90;;;;;;4965728;28;20051;-64
2023/05/31 00:23:54;;;;;;;5.88;3.97;;;10.20;99.90;;;;;;4967064;28;20070;-64
2023/05/31 00:26:22;;;;;;;9.88;2.53;;;10.20;99.90;;;;;;4966610;28;20069;-61
2023/05/31 00:28:50;;;;;;;6.82;2.42;;;10.20;99.90;;;;;;4967796;28;20070;-68
2023/05/31 00:31:17;;;;;;;4.88;3.08;;;10.10;99.90;;;;;;4966550;28;20445;-64
2023/05/31 00:33:46;;;;;;;6.75;2.03;;;10.20;99.90;;;;;;4968458;28;20059;-66
2023/05/31 00:36:12;;;;;;;5.32;2.00;;;10.20;99.90;;;;;;4961698;28;20114;-62
2023/05/31 00:38:39;;;;;;;3.83;1.75;;;10.20;99.90;;;;;;4956768;28;20427;-64
2023/05/31 00:41:09;;;;;;;8.70;1.67;;;10.20;99.90;;;;;;4968276;28;20681;-67
2023/05/31 00:43:36;;;;;;;7.07;1.87;;;10.20;99.90;;;;;;4967603;28;20125;-67
2023/05/31 00:46:04;;;;;;;2.95;2.10;;;10.20;99.90;;;;;;4966002;28;20281;-61
2023/05/31 00:48:31;;;;;;;6.55;2.40;;;10.20;99.90;;;;;;4965978;28;20047;-68
2023/05/31 00:50:58;;;;;;;4.22;1.83;;;10.20;99.90;;;;;;4965388;28;20409;-68
2023/05/31 00:53:25;;;;;;;4.20;1.95;;;10.20;99.90;;;;;;4967434;28;20070;-63
2023/05/31 00:55:52;;;;;;;4.53;2.22;;;10.20;99.90;;;;;;4964929;28;20113;-72
2023/05/31 00:58:20;;;;;;;6.60;2.17;;;10.30;99.90;;;;;;4963586;28;20945;-66
2023/05/31 01:00:47;;;;;;;3.97;1.73;;;10.20;99.90;;;;;;4967104;28;20429;-63
2023/05/31 01:03:15;;;;;;;3.00;1.40;;;10.20;99.90;;;;;;4970482;28;20066;-65
2023/05/31 01:05:44;;;;;;;8.23;2.28;;;10.20;99.90;;;;;;4964435;28;20500;-66
2023/05/31 01:08:11;;;;;;;4.03;1.73;;;10.20;99.90;;;;;;4963340;28;20059;-63
2023/05/31 01:10:38;;;;;;;3.17;1.60;;;10.20;99.90;;;;;;4961980;28;20074;-60
2023/05/31 01:13:21;;;;;;;5.63;2.30;;;10.30;99.90;;;;;;4956283;28;20113;-68
2023/05/31 01:16:22;;;;;;;6.03;1.92;;;10.30;99.90;;;;;;4956000;28;20501;-62
2023/05/31 01:19:00;;;;;;;4.45;1.50;;;10.30;99.90;;;;;;4956820;28;20074;-65
2023/05/31 01:21:52;;;;;;;5.32;1.98;;;10.30;99.90;;;;;;4954714;28;20054;-68
2023/05/31 01:24:49;;;;;;;5.63;2.03;;;10.30;99.90;;;;;;4954432;28;20046;-63
2023/05/31 01:27:16;;;;;;;2.78;1.58;;;10.30;99.90;;;;;;4956813;28;20882;-61
2023/05/31 01:29:44;;;;;;;5.57;1.90;;;10.30;99.90;;;;;;4956018;28;20062;-61
2023/05/31 01:32:14;;;;;;;5.75;1.92;;;10.40;99.90;;;;;;4954931;28;20047;-66
2023/05/31 01:34:45;;;;;;;5.22;1.80;;;10.40;99.90;;;;;;4954185;28;20450;-66
2023/05/31 01:37:12;;;;;;;2.75;2.15;;;10.40;99.90;;;;;;4953534;28;20046;-71
2023/05/31 01:39:39;;;;;;;5.43;1.88;;;10.40;99.90;;;;;;4969224;28;20859;-65
2023/05/31 01:42:08;;;;;;;3.40;1.83;;;10.40;99.90;;;;;;4968592;28;20113;-65
2023/05/31 01:44:38;;;;;;;9.30;1.83;;;10.40;99.90;;;;;;4955160;28;20051;-64
2023/05/31 01:47:07;;;;;;;3.20;1.38;;;10.40;99.90;;;;;;4955703;28;20701;-64
2023/05/31 01:49:37;;;;;;;5.00;2.70;;;10.40;99.90;;;;;;4967068;28;20057;-62
2023/05/31 01:52:12;;;;;;;5.50;1.73;;;10.40;99.90;;;;;;4955968;28;20239;-63
2023/05/31 01:54:39;;;;;;;4.72;2.30;;;10.40;99.90;;;;;;4967184;28;20050;-62
2023/05/31 01:57:08;;;;;;;5.30;2.60;;;10.40;99.90;;;;;;4953717;28;20186;-65
2023/05/31 01:59:37;;;;;;;5.95;2.42;;;10.40;99.90;;;;;;4952975;28;20054;-66
2023/05/31 02:02:06;;;;;;;3.17;1.75;;;10.40;99.90;;;;;;4954485;28;20054;-67
2023/05/31 02:04:33;;;;;;;4.80;2.80;;;10.40;99.90;;;;;;4965734;28;20059;-66
2023/05/31 02:07:02;;;;;;;7.25;2.45;;;10.30;99.90;;;;;;4955982;28;20062;-65
2023/05/31 02:09:29;;;;;;;3.92;2.65;;;10.30;99.90;;;;;;4954227;28;20059;-65
2023/05/31 02:11:56;;;;;;;4.45;1.85;;;10.30;99.90;;;;;;4955141;28;20082;-68
2023/05/31 02:14:23;;;;;;;2.53;2.15;;;10.30;99.90;;;;;;4953450;28;20690;-65
2023/05/31 02:16:50;;;;;;;7.45;2.80;;;10.30;99.90;;;;;;4954567;28;20114;-63
2023/05/31 02:19:16;;;;;;;5.07;3.40;;;10.30;99.90;;;;;;4953390;28;20448;-66
2023/05/31 02:21:43;;;;;;;6.05;3.58;;;10.30;99.90;;;;;;4952198;28;20085;-62
2023/05/31 02:24:10;;;;;;;8.20;2.00;;;10.40;99.90;;;;;;4951459;28;20073;-68
2023/05/31 02:26:39;;;;;;;3.67;2.30;;;10.40;99.90;;;;;;4954095;28;20051;-67
2023/05/31 02:29:06;;;;;;;4.15;2.00;;;10.40;99.90;;;;;;4955280;28;20053;-67
2023/05/31 02:31:34;;;;;;;5.90;2.30;;;10.40;99.90;;;;;;4955521;28;20043;-62
2023/05/31 02:34:01;;;;;;;5.10;2.30;;;10.40;99.90;;;;;;4953313;28;20049;-68
2023/05/31 02:36:29;;;;;;;4.63;2.22;;;10.40;99.90;;;;;;4953566;28;20074;-66
2023/05/31 02:38:56;;;;;;;5.72;3.40;;;10.40;99.90;;;;;;4955317;28;20043;-68
2023/05/31 02:41:23;;;;;;;6.68;3.15;;;10.40;99.90;;;;;;4955110;28;20145;-69
2023/05/31 02:43:50;;;;;;;10.02;2.42;;;10.40;99.90;;;;;;4955183;28;20046;-64
2023/05/31 02:46:17;;;;;;;4.10;2.47;;;10.40;99.90;;;;;;4954512;28;20105;-62
2023/05/31 02:48:44;;;;;;;9.05;2.55;;;10.40;99.90;;;;;;4953939;28;20062;-69
2023/05/31 02:51:11;;;;;;;5.80;2.10;;;10.40;99.90;;;;;;4953106;28;20066;-63
2023/05/31 02:53:58;;;;;;;6.57;2.65;;;10.50;99.90;;;;;;4955191;28;20105;-67
2023/05/31 02:56:27;;;;;;;5.18;2.20;;;10.40;99.90;;;;;;4952100;28;20106;-64
2023/05/31 02:59:11;;;;;;;7.50;2.60;;;10.50;99.90;;;;;;4969867;28;20061;-68
2023/05/31 03:01:40;;;;;;;7.78;2.95;;;10.50;99.90;;;;;;4967685;28;20075;-64
2023/05/31 03:04:18;;;;;;;5.65;2.42;;;10.50;99.90;;;;;;4951349;28;20110;-67
2023/05/31 03:06:45;;;;;;;9.55;2.78;;;10.50;99.90;;;;;;4951549;28;20516;-70
2023/05/31 03:09:16;;;;;;;7.80;3.30;;;10.50;99.90;;;;;;4952396;28;20050;-67
2023/05/31 03:11:44;;;;;;;8.63;2.58;;;10.50;99.90;;;;;;4953118;28;20074;-66
2023/05/31 03:14:12;;;;;;;4.93;2.25;;;10.50;99.90;;;;;;4950962;28;20054;-63
2023/05/31 03:16:47;;;;;;;8.15;2.70;;;10.60;99.90;;;;;;4967795;28;20062;-64
2023/05/31 03:19:14;;;;;;;8.63;3.08;;;10.50;99.90;;;;;;4948459;28;20436;-68
2023/05/31 03:21:43;;;;;;;8.18;2.25;;;10.60;99.90;;;;;;4953606;28;20493;-69
2023/05/31 03:24:11;;;;;;;7.40;3.30;;;10.60;99.90;;;;;;4952438;28;20165;-72
2023/05/31 03:26:38;;;;;;;4.13;2.65;;;10.60;99.90;;;;;;4952714;28;20051;-67
2023/05/31 03:29:05;;;;;;;6.65;3.40;;;10.60;99.90;;;;;;4953138;28;20054;-64
2023/05/31 03:31:33;;;;;;;7.75;2.25;;;10.70;99.90;;;;;;4953812;28;20586;-63
2023/05/31 03:34:01;;;;;;;6.20;1.80;;;10.70;99.90;;;;;;4952812;28;20137;-67
2023/05/31 03:36:28;;;;;;;8.00;2.58;;;10.70;99.90;;;;;;4952745;28;20047;-67
2023/05/31 03:38:57;;;;;;;8.52;4.75;;;10.80;99.90;;;;;;4967492;28;20054;-64
2023/05/31 03:41:24;;;;;;;4.28;1.98;;;10.80;99.90;;;;;;4967582;28;20055;-67
2023/05/31 03:43:51;;;;;;;6.05;2.40;;;10.90;99.90;;;;;;4954578;28;20058;-65
2023/05/31 03:46:19;;;;;;;3.88;1.67;;;10.90;99.90;;;;;;4965944;28;20704;-64
2023/05/31 03:48:47;;;;;;;5.50;2.13;;;11.00;99.90;;;;;;4952628;28;20189;-66
2023/05/31 03:51:14;;;;;;;6.57;2.20;;;11.00;99.90;;;;;;4952198;28;20130;-65
2023/05/31 03:53:41;;;;;;;8.05;2.15;;;11.10;99.90;;;;;;4957828;28;20090;-66
2023/05/31 03:56:08;;;;;;;2.38;1.85;;;11.10;99.90;;;;;;4958308;28;20059;-62
2023/05/31 03:58:35;;;;;;;3.65;2.33;;;11.10;99.90;;;;;;4956002;28;20062;-64
2023/05/31 04:01:02;;;;;;;4.65;1.85;;;11.20;99.90;;;;;;4957347;28;20069;-72
2023/05/31 04:03:29;;;;;;;3.92;1.92;;;11.20;99.90;;;;;;4957269;28;20054;-63
2023/05/31 04:05:56;;;;;;;3.17;2.55;;;11.30;99.90;;;;;;4955210;28;20059;-69
2023/05/31 04:08:23;;;;;;;2.88;1.42;;;11.40;99.90;;;;;;4957122;28;20086;-67
2023/05/31 04:10:50;;;;;;;4.60;2.00;;;11.30;99.90;;;;;;4970557;28;20050;-63
2023/05/31 04:13:17;;;;;;;3.10;1.70;;;11.40;99.90;;;;;;4957116;28;20054;-62
2023/05/31 04:15:44;;;;;;;4.13;2.10;;;11.50;99.90;;;;;;4956726;28;20077;-65
2023/05/31 04:18:11;;;;;;;3.28;1.48;;;11.60;99.90;;;;;;4955018;28;20058;-65
2023/05/31 04:20:38;;;;;;;2.30;1.42;;;11.70;99.90;;;;;;4969136;28;20058;-64
2023/05/31 04:23:05;;;;;;;3.40;1.70;;;11.80;99.90;;;;;;4956952;28;20110;-62
2023/05/31 04:25:32;;;;;;;4.88;1.40;;;11.90;99.90;;;;;;4957013;28;20050;-67
2023/05/31 04:27:59;;;;;;;2.42;1.65;;;12.00;99.90;;;;;;4957466;28;20069;-64
2023/05/31 04:30:27;;;;;;;4.50;1.52;;;12.10;99.90;;;;;;4968947;28;20066;-65
2023/05/31 04:32:57;;;;;;;1.77;1.50;;;12.20;99.90;;;;;;4958781;28;20063;-65
2023/05/31 04:35:28;;;;;;;1.63;1.30;;;12.30;99.90;;;;;;4968587;28;20058;-72
2023/05/31 04:37:59;;;;;;;1.40;1.25;;;12.40;99.90;;;;;;4956794;28;20059;-65
2023/05/31 04:40:26;;;;;;;2.40;1.30;;;12.50;99.90;;;;;;4954018;28;20050;-67
2023/05/31 04:42:56;;;;;;;2.03;1.00;;;12.50;99.90;;;;;;4971307;28;20105;-66
2023/05/31 04:45:27;;;;;;;2.20;1.80;;;12.70;99.90;;;;;;4970642;28;20065;-65
2023/05/31 04:47:57;;;;;;;4.28;1.40;;;12.80;99.90;;;;;;4972776;28;20511;-66
2023/05/31 04:50:24;;;;;;;2.97;0.90;;;12.90;99.90;;;;;;4966646;28;20089;-65
2023/05/31 04:52:52;;;;;;;5.40;1.13;;;13.10;99.90;;;;;;4958368;28;20054;-63
2023/05/31 04:55:19;;;;;;;5.25;1.20;;;13.20;99.90;;;;;;4968235;28;20057;-70
2023/05/31 04:57:46;;;;;;;4.70;1.20;;;13.30;99.90;;;;;;4970299;28;20061;-67
2023/05/31 05:00:15;;;;;;;2.95;1.38;;;13.40;99.90;;;;;;4953030;28;20511;-65
2023/05/31 05:03:05;;;;;;;3.78;1.58;;;13.50;99.90;;;;;;4969850;28;20054;-61
2023/05/31 05:05:36;;;;;;;2.10;1.00;;;13.50;99.90;;;;;;4953170;28;20062;-64
2023/05/31 05:08:03;;;;;;;2.47;1.42;;;13.60;99.90;;;;;;4969920;28;20059;-64
2023/05/31 05:10:30;;;;;;;2.40;0.77;;;13.60;99.90;;;;;;4967946;28;20053;-68
2023/05/31 05:12:57;;;;;;;15.30;3.17;;;13.70;99.90;;;;;;4971606;28;20515;-68
2023/05/31 05:15:24;;;;;;;7.05;1.20;;;13.80;99.90;;;;;;4955565;28;20121;-66
2023/05/31 05:17:51;;;;;;;4.45;1.33;;;13.80;99.90;;;;;;4966389;28;20587;-70
2023/05/31 05:20:19;;;;;;;3.13;1.63;;;13.80;99.90;;;;;;4951287;28;20059;-69
2023/05/31 05:22:52;;;;;;;2.95;1.13;;;13.80;99.90;;;;;;4955222;28;20094;-67
2023/05/31 05:25:21;;;;;;;3.40;1.50;;;13.80;99.90;;;;;;4954864;28;20487;-68
2023/05/31 05:27:48;;;;;;;1.67;1.13;;;13.90;99.90;;;;;;4954636;28;20125;-68
2023/05/31 05:30:17;;;;;;;2.47;1.08;;;13.90;99.90;;;;;;4953349;28;20070;-68
2023/05/31 05:32:45;;;;;;;2.78;1.08;;;13.90;99.90;;;;;;4953946;28;20047;-75
2023/05/31 05:35:12;;;;;;;7.05;2.17;;;13.90;99.90;;;;;;4954523;28;20046;-63
2023/05/31 05:37:39;;;;;;;3.47;1.10;;;13.80;99.90;;;;;;4954324;28;20378;-60
2023/05/31 05:40:07;;;;;;;3.53;1.33;;;13.80;99.90;;;;;;4955830;28;20104;-63
2023/05/31 05:42:36;;;;;;;3.53;1.20;;;13.80;99.90;;;;;;4953626;28;20143;-65
2023/05/31 05:45:07;;;;;;;6.63;2.30;;;13.80;99.90;;;;;;4953517;28;20055;-74
2023/05/31 05:47:36;;;;;;;2.05;1.13;;;13.80;99.90;;;;;;4968668;28;20055;-65
2023/05/31 05:50:05;;;;;;;3.78;0.85;;;13.80;99.90;;;;;;4952648;28;20065;-63
2023/05/31 05:52:32;;;;;;;7.18;1.40;;;13.80;99.90;;;;;;4967471;28;20185;-64
2023/05/31 05:54:59;;;;;;;6.72;2.28;;;13.80;99.90;;;;;;4953247;28;20793;-70
2023/05/31 05:57:26;;;;;;;1.80;1.10;;;13.90;99.90;;;;;;4954918;28;20058;-63
2023/05/31 06:00:05;;;;;;;4.50;1.35;;;13.90;99.90;;;;;;4953341;28;20142;-71
2023/05/31 06:02:40;;;;;;;2.13;1.35;;;13.90;99.90;;;;;;4954379;28;20763;-68
2023/05/31 06:05:08;;;;;;;4.47;1.95;;;14.00;99.90;;;;;;4953387;28;20057;-64
2023/05/31 06:07:35;;;;;;;4.13;1.55;;;14.00;99.90;;;;;;4967148;28;20156;-66
2023/05/31 06:10:05;;;;;;;3.20;2.08;;;14.00;99.90;;;;;;4951361;28;20983;-66
2023/05/31 06:12:33;;;;;;;4.35;1.95;;;14.00;99.90;;;;;;4951698;28;20050;-70
2023/05/31 06:15:00;;;;;;;13.18;2.20;;;14.00;99.90;;;;;;4950236;28;20443;-71
2023/05/31 06:17:27;;;;;;;1.63;1.00;;;14.00;99.90;;;;;;4967100;28;20069;-66
2023/05/31 06:19:54;;;;;;;4.68;3.20;;;14.00;99.90;;;;;;4951360;28;20500;-66
2023/05/31 06:22:21;;;;;;;4.93;1.77;;;14.00;99.90;;;;;;4951646;28;20139;-65
2023/05/31 06:24:49;;;;;;;3.92;1.25;;;14.10;99.90;;;;;;4969556;28;20059;-65
2023/05/31 06:27:16;;;;;;;2.70;1.45;;;14.10;99.90;;;;;;4955634;28;20065;-63
2023/05/31 06:29:44;;;;;;;3.72;1.25;;;14.20;99.90;;;;;;4953009;28;20774;-67
2023/05/31 06:32:27;;;;;;;1.90;1.75;;;14.20;99.90;;;;;;4951343;28;20221;-62
2023/05/31 06:34:54;;;;;;;8.57;2.53;;;14.10;99.90;;;;;;4951745;28;20057;-65
2023/05/31 06:37:22;;;;;;;9.38;2.13;;;14.20;99.90;;;;;;4967453;28;20245;-65
2023/05/31 06:39:49;;;;;;;4.05;2.35;;;14.20;99.90;;;;;;4968144;28;20051;-62
2023/05/31 06:42:17;;;;;;;7.68;1.58;;;14.20;99.90;;;;;;4953225;28;20074;-67
2023/05/31 06:45:16;;;;;;;5.57;1.63;;;14.10;99.90;;;;;;4947259;28;20690;-70
2023/05/31 06:48:05;;;;;;;5.03;2.50;;;14.20;99.90;;;;;;4955719;28;20047;-68
2023/05/31 06:50:51;;;;;;;4.97;1.35;;;14.20;99.90;;;;;;4952818;28;20066;-67
2023/05/31 06:53:37;;;;;;;5.65;1.75;;;14.30;99.90;;;;;;4953012;28;20065;-63
2023/05/31 06:56:15;;;;;;;3.17;1.40;;;14.30;99.90;;;;;;4965429;28;20093;-62
2023/05/31 06:58:43;;;;;;;6.20;1.75;;;14.40;99.90;;;;;;4953629;28;20063;-71
2023/05/31 07:01:10;;;;;;;3.58;1.75;;;14.40;99.90;;;;;;4952858;28;20062;-60
2023/05/31 07:03:37;;;;;;;2.88;1.30;;;14.40;99.90;;;;;;4967943;28;21427;-64
2023/05/31 07:06:04;;;;;;;2.22;1.38;;;14.40;99.90;;;;;;4964710;28;20054;-69
2023/05/31 07:08:31;;;;;;;6.72;1.95;;;14.40;99.90;;;;;;4965519;28;20051;-67
2023/05/31 07:11:17;;;;;;;1.92;1.00;;;14.40;99.90;;;;;;4952980;28;20082;-68
2023/05/31 07:13:44;;;;;;;2.17;1.13;;;14.50;99.90;;;;;;4953212;28;20062;-70
2023/05/31 07:16:11;;;;;;;3.97;1.17;;;14.50;99.90;;;;;;4950542;28;20063;-65
2023/05/31 07:18:38;;;;;;;4.10;1.33;;;14.40;99.90;;;;;;4953435;28;20047;-64
2023/05/31 07:21:05;;;;;;;3.75;1.98;;;14.40;99.90;;;;;;4964505;28;20421;-71
2023/05/31 07:23:32;;;;;;;3.00;1.45;;;14.30;99.90;;;;;;4954690;28;20528;-63
2023/05/31 07:26:00;;;;;;;2.13;0.90;;;14.30;99.90;;;;;;4965911;28;20050;-65
2023/05/31 07:28:27;;;;;;;4.65;1.75;;;14.30;99.90;;;;;;4952202;28;20058;-66
2023/05/31 07:30:54;;;;;;;4.75;1.60;;;14.40;99.90;;;;;;4954294;28;20075;-63
2023/05/31 07:33:21;;;;;;;2.05;1.05;;;14.40;99.90;;;;;;4954651;28;20133;-65
2023/05/31 07:35:59;;;;;;;6.35;1.08;;;14.50;99.90;;;;;;4951653;28;20102;-68
2023/05/31 07:38:26;;;;;;;4.88;1.70;;;14.60;99.90;;;;;;4952970;28;20047;-66
2023/05/31 07:40:53;;;;;;;2.83;1.10;;;14.60;99.90;;;;;;4953890;28;20572;-61
2023/05/31 07:43:20;;;;;;;3.30;1.65;;;14.70;99.90;;;;;;4953933;28;20063;-67
2023/05/31 07:45:48;;;;;;;4.13;1.33;;;14.70;99.90;;;;;;4953915;28;20055;-66
2023/05/31 07:48:16;;;;;;;1.17;0.75;;;14.70;99.90;;;;;;4951459;28;20866;-65
2023/05/31 07:50:44;;;;;;;3.28;2.15;;;14.70;99.90;;;;;;4951922;28;20058;-61
2023/05/31 07:53:11;;;;;;;2.22;1.05;;;14.70;99.90;;;;;;4954167;28;20097;-63
2023/05/31 07:55:38;;;;;;;2.88;1.25;;;14.80;99.90;;;;;;4953706;28;21139;-66
2023/05/31 07:58:05;;;;;;;1.77;1.23;;;14.80;99.90;;;;;;4952681;28;20097;-65
2023/05/31 08:00:32;;;;;;;2.70;1.00;;;14.80;99.90;;;;;;4952950;28;20121;-66
2023/05/31 08:03:01;;;;;;;4.75;1.67;;;14.90;99.90;;;;;;4953695;28;20068;-70
2023/05/31 08:05:28;;;;;;;3.40;0.93;;;14.90;99.90;;;;;;4952035;28;20055;-64
2023/05/31 08:07:55;;;;;;;5.22;1.40;;;14.90;99.90;;;;;;4953575;28;20157;-66
2023/05/31 08:10:22;;;;;;;8.18;2.08;;;14.90;99.90;;;;;;4951745;28;20050;-68
2023/05/31 08:12:49;;;;;;;6.03;2.70;;;14.90;99.90;;;;;;4954129;28;20452;-65
2023/05/31 08:15:16;;;;;;;4.68;2.25;;;15.00;99.90;;;;;;4952625;28;20405;-64
2023/05/31 08:17:43;;;;;;;2.63;0.98;;;15.10;99.90;;;;;;4953001;28;20050;-71
2023/05/31 08:20:13;;;;;;;6.38;1.67;;;15.20;99.90;;;;;;4950202;28;20062;-62
2023/05/31 08:22:44;;;;;;;4.37;1.30;;;15.30;99.90;;;;;;4952382;28;20082;-68
2023/05/31 08:25:13;;;;;;;1.35;0.70;;;15.10;99.90;;;;;;4950769;28;20046;-71
2023/05/31 08:27:40;;;;;;;3.92;1.42;;;15.00;99.90;;;;;;4953391;28;20062;-64
2023/05/31 08:30:12;;;;;;;4.57;2.28;;;15.00;99.90;;;;;;4952956;28;20785;-70
2023/05/31 08:32:40;;;;;;;4.93;1.02;;;15.00;99.90;;;;;;4952506;28;21508;-67
2023/05/31 08:35:11;;;;;;;4.47;1.15;;;15.10;99.90;;;;;;4951769;28;20690;-65
2023/05/31 08:37:38;;;;;;;;;;;15.20;99.90;;;;;;4954354;28;20047;-62
2023/05/31 08:40:06;;;;;;;4.97;1.15;;;15.10;99.90;;;;;;4955075;28;19930;-69
2023/05/31 08:42:50;;;;;;;3.33;1.10;;;15.10;99.90;;;;;;4956021;28;20050;-67
2023/05/31 08:45:18;;;;;;;6.32;2.75;;;15.00;99.90;;;;;;4955799;28;20046;-67
2023/05/31 08:47:53;;;;;;;3.42;1.50;;;15.10;99.90;;;;;;4957839;28;20051;-64
2023/05/31 08:50:21;;;;;;;1.15;1.05;;;15.20;99.90;;;;;;4953036;28;20058;-66
2023/05/31 08:52:49;;;;;;;8.63;1.38;;;15.30;99.90;;;;;;4957931;28;20630;-68
2023/05/31 08:55:17;;;;;;;0.88;0.70;;;15.40;99.90;;;;;;4955997;28;20078;-63
2023/05/31 08:57:46;;;;;;;2.42;1.00;;;15.50;99.90;;;;;;4957744;28;20117;-71
2023/05/31 09:00:14;;;;;;;1.88;1.25;;;15.50;99.90;;;;;;4954619;28;20055;-67
2023/05/31 09:02:41;;;;;;;5.15;1.88;;;15.40;99.90;;;;;;4956698;28;20540;-66
2023/05/31 09:05:11;;;;;;;6.70;2.20;;;15.30;99.90;;;;;;4953182;28;20509;-70
2023/05/31 09:07:38;;;;;;;6.68;1.48;;;15.20;99.90;;;;;;4956670;28;20046;-66
2023/05/31 09:10:08;;;;;;;5.90;1.23;;;15.30;99.90;;;;;;4956059;28;20137;-64
2023/05/31 09:12:36;;;;;;;3.30;1.83;;;15.20;99.90;;;;;;4956018;28;20049;-63
2023/05/31 09:15:05;;;;;;;1.25;0.88;;;15.40;99.90;;;;;;4955311;28;20062;-68
2023/05/31 09:17:33;;;;;;;1.90;1.10;;;15.40;99.90;;;;;;4956837;28;20370;-64
2023/05/31 09:20:00;;;;;;;2.58;1.30;;;15.40;99.90;;;;;;4953676;28;20130;-67
2023/05/31 09:22:27;;;;;;;1.42;0.95;;;15.40;99.90;;;;;;4955532;28;20058;-67
2023/05/31 09:24:59;;;;;;;2.40;1.00;;;15.40;99.90;;;;;;4955879;28;20153;-64
2023/05/31 09:27:33;;;;;;;2.20;1.20;;;15.40;99.90;;;;;;4956270;28;20442;-71
2023/05/31 09:30:08;;;;;;;2.95;1.33;;;15.20;99.90;;;;;;4955790;28;20161;-67
2023/05/31 09:32:35;;;;;;;2.28;0.93;;;15.20;99.90;;;;;;4955097;28;20077;-69
2023/05/31 09:35:17;;;;;;;1.35;0.88;;;15.30;99.90;;;;;;4954492;28;20047;-71
2023/05/31 09:37:46;;;;;;;1.80;1.63;;;15.50;99.90;;;;;;4955694;28;20090;-67
2023/05/31 09:40:14;;;;;;;3.15;1.40;;;15.60;99.90;;;;;;4954552;28;20146;-63
2023/05/31 09:42:48;;;;;;;1.60;0.95;;;15.50;99.90;;;;;;4956248;28;20492;-63
2023/05/31 09:45:16;;;;;;;3.25;1.05;;;15.30;99.90;;;;;;4954319;28;20055;-64
2023/05/31 09:47:44;;;;;;;1.40;1.05;;;15.40;99.90;;;;;;4956662;28;20141;-68
2023/05/31 09:50:15;;;;;;;3.15;1.50;;;15.40;99.90;;;;;;4951968;28;20517;-62
2023/05/31 09:52:47;;;;;;;1.67;0.75;;;15.30;99.90;;;;;;4956519;28;20540;-60
2023/05/31 09:55:16;;;;;;;1.15;1.05;;;15.20;99.90;;;;;;4954970;28;20844;-65
2023/05/31 09:57:44;;;;;;;2.97;1.10;;;15.20;99.90;;;;;;4968193;28;20047;-69
2023/05/31 10:00:23;;;;;;;2.97;1.30;;;15.30;99.90;;;;;;4953104;28;20042;-60
2023/05/31 10:02:52;;;;;;;3.97;1.38;;;15.20;99.90;;;;;;4956140;28;20094;-64
2023/05/31 10:05:20;;;;;;;1.75;1.20;;;15.30;99.90;;;;;;4953269;28;20043;-62
2023/05/31 10:07:52;;;;;;;3.53;1.35;;;15.20;99.90;;;;;;4955594;28;20047;-63
2023/05/31 10:10:20;;;;;;;2.05;1.48;;;15.40;99.90;;;;;;4952403;28;20066;-70
2023/05/31 10:12:51;;;;;;;3.90;0.95;;;15.60;99.90;;;;;;4955383;28;20058;-63
2023/05/31 10:15:25;;;;;;;1.33;1.20;;;15.70;99.90;;;;;;4954921;28;20057;-69
2023/05/31 10:17:59;;;;;;;2.50;1.27;;;15.60;99.90;;;;;;4955488;28;20784;-68
2023/05/31 10:20:32;;;;;;;1.75;1.65;;;15.70;99.90;;;;;;4953417;28;20055;-70
2023/05/31 10:23:02;;;;;;;2.47;1.33;;;15.80;99.90;;;;;;4956622;28;20054;-64
2023/05/31 10:25:35;;;;;;;3.45;1.45;;;15.80;99.90;;;;;;4955481;28;20051;-68
2023/05/31 10:28:11;;;;;;;3.47;1.45;;;15.90;99.90;;;;;;4956353;28;20059;-68
2023/05/31 10:30:40;;;;;;;2.15;1.35;;;15.80;99.90;;;;;;4955072;28;20194;-69
2023/05/31 10:33:11;;;;;;;2.90;1.48;;;15.90;99.90;;;;;;4956544;28;20460;-67
2023/05/31 10:35:38;;;;;;;3.95;1.52;;;16.10;99.90;;;;;;4953886;28;20133;-69
2023/05/31 10:38:06;;;;;;;3.38;1.20;;;16.00;99.90;;;;;;4955585;28;20138;-71
2023/05/31 10:41:02;;;;;;;1.20;1.10;;;16.00;99.90;;;;;;4954227;28;20046;-66
2023/05/31 10:43:42;;;;;;;3.10;2.03;;;15.70;99.90;;;;;;4955404;28;20198;-66
2023/05/31 10:46:13;;;;;;;3.70;2.08;;;15.30;99.90;;;;;;4950918;28;20077;-62
2023/05/31 10:49:06;;;;;;;2.05;1.05;;;15.50;99.90;;;;;;4954793;28;20050;-66
2023/05/31 10:51:46;;;;;;;2.80;1.20;;;15.90;99.90;;;;;;4953224;28;20147;-68
2023/05/31 10:54:31;;;;;;;3.53;1.50;;;15.90;99.90;;;;;;4955118;28;20055;-68
2023/05/31 10:56:59;;;;;;;4.57;1.65;;;16.00;99.90;;;;;;4955820;28;20090;-65
2023/05/31 10:59:26;;;;;;;2.22;1.27;;;16.10;99.90;;;;;;4955291;28;20141;-63
2023/05/31 11:01:54;;;;;;;3.33;1.90;;;15.80;99.90;;;;;;4953852;28;20505;-64
2023/05/31 11:04:24;;;;;;;2.67;1.38;;;15.70;99.90;;;;;;4952068;28;20067;-65
2023/05/31 11:07:14;;;;;;;2.70;2.22;;;15.80;99.90;;;;;;4954957;28;20798;-64
2023/05/31 11:09:53;;;;;;;2.83;1.30;;;16.00;99.90;;;;;;4954539;28;20111;-70
2023/05/31 11:12:40;;;;;;;6.47;1.55;;;16.20;99.90;;;;;;4952997;28;21088;-63
2023/05/31 11:15:14;;;;;;;6.82;3.15;;;16.20;99.90;;;;;;4954388;28;20089;-68
2023/05/31 11:17:54;;;;;;;2.40;2.22;;;16.20;99.90;;;;;;4954303;28;20078;-66
2023/05/31 11:20:22;;;;;;;9.10;3.42;;;16.30;99.90;;;;;;4951588;28;20057;-65
2023/05/31 11:23:18;;;;;;;5.95;1.73;;;16.40;99.90;;;;;;4954168;28;20062;-69
2023/05/31 11:26:08;;;;;;;1.45;0.65;;;16.40;99.90;;;;;;4954365;28;21556;-62
2023/05/31 11:28:57;;;;;;;3.38;1.35;;;16.50;99.90;;;;;;4953890;28;20055;-70
2023/05/31 11:31:49;;;;;;;2.15;1.15;;;16.40;99.90;;;;;;4953761;28;20070;-70
2023/05/31 11:34:28;;;;;;;3.63;1.95;;;16.50;99.90;;;;;;4951909;28;20555;-67
2023/05/31 11:37:03;;;;;;;1.20;0.80;;;16.30;99.90;;;;;;4955582;28;20055;-68
2023/05/31 11:39:31;;;;;;;3.72;2.28;;;16.30;99.90;;;;;;4954948;28;20114;-67
2023/05/31 11:41:58;;;;;;;3.65;1.55;;;16.20;99.90;;;;;;4954456;28;20513;-70
2023/05/31 11:44:30;;;;;;;1.73;1.10;;;16.20;99.90;;;;;;4952653;28;20691;-65
2023/05/31 11:47:04;;;;;;;4.30;2.13;;;16.40;99.90;;;;;;4954341;28;21505;-69
2023/05/31 11:49:33;;;;;;;4.97;1.60;;;16.50;99.90;;;;;;4952884;28;20053;-73
2023/05/31 11:52:01;;;;;;;1.80;1.60;;;16.70;99.90;;;;;;4954749;28;20149;-66
2023/05/31 11:54:29;;;;;;;2.53;1.27;;;16.50;99.90;;;;;;4953969;28;20058;-70
2023/05/31 11:56:58;;;;;;;4.28;1.05;;;16.30;99.90;;;;;;4956873;28;20230;-68
2023/05/31 11:59:27;;;;;;;1.52;0.90;;;16.60;99.90;;;;;;4957004;28;20066;-68
2023/05/31 12:01:59;;;;;;;2.75;0.90;;;16.40;99.90;;;;;;4957229;28;20057;-67
2023/05/31 12:04:44;;;;;;;2.80;2.45;;;16.70;99.90;;;;;;4950881;28;20603;-72
2023/05/31 12:07:16;;;;;;;7.30;2.70;;;16.90;99.90;;;;;;4954314;28;20086;-68
2023/05/31 12:09:43;;;;;;;1.20;1.10;;;17.20;99.90;;;;;;4953976;28;20125;-69
2023/05/31 12:12:12;;;;;;;5.55;2.17;;;17.20;99.90;;;;;;4956100;28;20047;-71
2023/05/31 12:14:49;;;;;;;3.15;1.90;;;17.30;99.90;;;;;;4962082;28;20079;-69
2023/05/31 12:17:16;;;;;;;3.28;1.67;;;17.30;99.90;;;;;;4958048;28;20776;-70
2023/05/31 12:19:46;;;;;;;3.28;0.80;;;17.40;99.90;;;;;;4960580;28;20849;-68
2023/05/31 12:22:13;;;;;;;1.60;0.98;;;17.60;99.90;;;;;;4960962;28;20051;-70
2023/05/31 12:24:50;;;;;;;1.45;0.95;;;17.70;99.90;;;;;;4960381;28;21569;-66
2023/05/31 12:27:20;;;;;;;2.10;0.90;;;17.60;99.90;;;;;;4963477;28;20484;-63
2023/05/31 12:30:04;;;;;;;6.25;1.98;;;17.70;99.90;;;;;;4961476;28;20047;-75
2023/05/31 12:32:31;;;;;;;2.25;1.08;;;17.80;99.90;;;;;;4961749;28;20109;-68
2023/05/31 12:35:09;;;;;;;2.90;1.27;;;17.50;99.90;;;;;;4962600;28;20140;-64
2023/05/31 12:37:39;;;;;;;1.92;1.02;;;17.60;99.90;;;;;;4964112;28;20066;-69
2023/05/31 12:40:20;;;;;;;2.83;0.90;;;17.70;99.90;;;;;;4963597;28;20134;-65
2023/05/31 12:42:50;;;;;;;0.98;0.60;;;17.90;99.90;;;;;;4963328;28;20051;-66
2023/05/31 12:45:19;;;;;;;0.98;0.90;;;18.00;99.90;;;;;;4962946;28;20055;-71
2023/05/31 12:47:57;;;;;;;2.38;1.33;;;18.10;99.90;;;;;;4964502;28;20464;-65
2023/05/31 12:50:28;;;;;;;1.13;0.80;;;18.10;99.90;;;;;;4961298;28;20081;-71
2023/05/31 12:52:56;;;;;;;3.08;1.05;;;18.20;99.90;;;;;;4964231;28;20906;-68
2023/05/31 12:55:23;;;;;;;1.90;1.38;;;18.00;99.90;;;;;;4963267;28;20471;-70
2023/05/31 12:57:51;;;;;;;1.30;1.00;;;18.20;99.90;;;;;;4964614;28;20126;-64
2023/05/31 13:00:19;;;;;;;2.13;1.15;;;18.20;99.90;;;;;;4961388;28;20055;-67
2023/05/31 13:02:46;;;;;;;1.63;1.17;;;17.70;99.90;;;;;;4965364;28;20051;-68
2023/05/31 13:05:13;;;;;;;4.38;0.80;;;17.60;99.90;;;;;;4961714;28;20054;-68